sensor_id;sensor_type;location;lat;lon;timestamp;pressure;altitude;pressure_sealevel;temperature
40624;BMP280;26325;48.594;11.650;2023-03-01T00:02:03;97309.81;;;2.54
40624;BMP280;26325;48.594;11.650;2023-03-01T00:04:31;97309.44;;;2.43
40624;BMP280;26325;48.594;11.650;2023-03-01T00:07:01;97305.69;;;2.53
40624;BMP280;26325;48.594;11.650;2023-03-01T00:09:26;97311.22;;;2.57
40624;BMP280;26325;48.594;11.650;2023-03-01T00:11:52;97312.03;;;2.57
40624;BMP280;26325;48.594;11.650;2023-03-01T00:14:17;97309.97;;;2.53
40624;BMP280;26325;48.594;11.650;2023-03-01T00:16:43;97301.38;;;2.54
40624;BMP280;26325;48.594;11.650;2023-03-01T00:19:14;97291.16;;;2.54
40624;BMP280;26325;48.594;11.650;2023-03-01T00:21:42;97292.75;;;2.55
40624;BMP280;26325;48.594;11.650;2023-03-01T00:24:10;97293.81;;;2.46
40624;BMP280;26325;48.594;11.650;2023-03-01T00:26:36;97293.72;;;2.40
40624;BMP280;26325;48.594;11.650;2023-03-01T00:29:04;97288.06;;;2.44
40624;BMP280;26325;48.594;11.650;2023-03-01T00:31:30;97292.56;;;2.42
40624;BMP280;26325;48.594;11.650;2023-03-01T00:33:58;97286.22;;;2.38
40624;BMP280;26325;48.594;11.650;2023-03-01T00:36:26;97284.81;;;2.36
40624;BMP280;26325;48.594;11.650;2023-03-01T00:38:54;97285.88;;;2.41
40624;BMP280;26325;48.594;11.650;2023-03-01T00:41:20;97279.88;;;2.34
40624;BMP280;26325;48.594;11.650;2023-03-01T00:43:49;97284.31;;;2.40
40624;BMP280;26325;48.594;11.650;2023-03-01T00:46:19;97285.28;;;2.39
40624;BMP280;26325;48.594;11.650;2023-03-01T00:48:45;97279.38;;;2.39
40624;BMP280;26325;48.594;11.650;2023-03-01T00:51:19;97270.72;;;2.26
40624;BMP280;26325;48.594;11.650;2023-03-01T00:53:45;97272.84;;;2.22
40624;BMP280;26325;48.594;11.650;2023-03-01T00:56:12;97266.50;;;2.18
40624;BMP280;26325;48.594;11.650;2023-03-01T00:58:41;97278.13;;;2.21
40624;BMP280;26325;48.594;11.650;2023-03-01T01:01:08;97265.16;;;2.08
40624;BMP280;26325;48.594;11.650;2023-03-01T01:06:25;97266.38;;;1.76
40624;BMP280;26325;48.594;11.650;2023-03-01T01:08:51;97271.16;;;1.79
40624;BMP280;26325;48.594;11.650;2023-03-01T01:11:18;97271.72;;;1.89
40624;BMP280;26325;48.594;11.650;2023-03-01T01:13:47;97270.69;;;1.97
40624;BMP280;26325;48.594;11.650;2023-03-01T01:16:16;97261.22;;;2.06
40624;BMP280;26325;48.594;11.650;2023-03-01T01:18:45;97266.63;;;2.03
40624;BMP280;26325;48.594;11.650;2023-03-01T01:21:13;97256.94;;;1.98
40624;BMP280;26325;48.594;11.650;2023-03-01T01:23:42;97248.41;;;1.91
40624;BMP280;26325;48.594;11.650;2023-03-01T01:26:14;97245.53;;;1.94
40624;BMP280;26325;48.594;11.650;2023-03-01T01:28:40;97244.97;;;1.85
40624;BMP280;26325;48.594;11.650;2023-03-01T01:31:08;97240.94;;;1.90
40624;BMP280;26325;48.594;11.650;2023-03-01T01:33:36;97243.31;;;1.91
40624;BMP280;26325;48.594;11.650;2023-03-01T01:36:03;97238.28;;;1.84
40624;BMP280;26325;48.594;11.650;2023-03-01T01:38:31;97238.22;;;1.91
40624;BMP280;26325;48.594;11.650;2023-03-01T01:40:59;97237.97;;;1.87
40624;BMP280;26325;48.594;11.650;2023-03-01T01:43:26;97240.00;;;1.69
40624;BMP280;26325;48.594;11.650;2023-03-01T01:45:57;97238.69;;;1.73
40624;BMP280;26325;48.594;11.650;2023-03-01T01:48:32;97236.28;;;1.79
40624;BMP280;26325;48.594;11.650;2023-03-01T01:51:06;97247.78;;;1.53
40624;BMP280;26325;48.594;11.650;2023-03-01T01:53:32;97238.75;;;1.65
40624;BMP280;26325;48.594;11.650;2023-03-01T01:56:02;97236.25;;;1.57
40624;BMP280;26325;48.594;11.650;2023-03-01T01:58:32;97251.22;;;1.60
40624;BMP280;26325;48.594;11.650;2023-03-01T02:00:57;97239.59;;;1.58
40624;BMP280;26325;48.594;11.650;2023-03-01T02:03:26;97246.19;;;1.52
40624;BMP280;26325;48.594;11.650;2023-03-01T02:05:57;97234.97;;;1.61
40624;BMP280;26325;48.594;11.650;2023-03-01T02:08:28;97235.44;;;1.43
40624;BMP280;26325;48.594;11.650;2023-03-01T02:10:55;97243.16;;;1.49
40624;BMP280;26325;48.594;11.650;2023-03-01T02:13:25;97243.63;;;1.52
40624;BMP280;26325;48.594;11.650;2023-03-01T02:15:50;97225.81;;;1.52
40624;BMP280;26325;48.594;11.650;2023-03-01T02:18:20;97224.66;;;1.55
40624;BMP280;26325;48.594;11.650;2023-03-01T02:23:29;97212.78;;;1.48
40624;BMP280;26325;48.594;11.650;2023-03-01T02:28:32;97220.53;;;1.32
40624;BMP280;26325;48.594;11.650;2023-03-01T02:30:58;97215.50;;;1.24
40624;BMP280;26325;48.594;11.650;2023-03-01T02:33:43;97211.16;;;1.11
40624;BMP280;26325;48.594;11.650;2023-03-01T02:36:12;97216.91;;;0.97
40624;BMP280;26325;48.594;11.650;2023-03-01T02:38:40;97218.81;;;1.03
40624;BMP280;26325;48.594;11.650;2023-03-01T02:41:08;97221.53;;;1.01
40624;BMP280;26325;48.594;11.650;2023-03-01T02:43:38;97222.59;;;1.07
40624;BMP280;26325;48.594;11.650;2023-03-01T02:46:15;97217.22;;;1.02
40624;BMP280;26325;48.594;11.650;2023-03-01T02:48:46;97222.00;;;0.97
40624;BMP280;26325;48.594;11.650;2023-03-01T02:53:55;97224.50;;;0.75
40624;BMP280;26325;48.594;11.650;2023-03-01T02:56:23;97214.03;;;0.70
40624;BMP280;26325;48.594;11.650;2023-03-01T02:58:49;97221.53;;;0.64
40624;BMP280;26325;48.594;11.650;2023-03-01T03:01:20;97208.97;;;0.62
40624;BMP280;26325;48.594;11.650;2023-03-01T03:03:46;97207.88;;;0.65
40624;BMP280;26325;48.594;11.650;2023-03-01T03:06:12;97194.19;;;0.66
40624;BMP280;26325;48.594;11.650;2023-03-01T03:08:37;97199.75;;;0.61
40624;BMP280;26325;48.594;11.650;2023-03-01T03:11:03;97193.13;;;0.53
40624;BMP280;26325;48.594;11.650;2023-03-01T03:13:28;97188.72;;;0.47
40624;BMP280;26325;48.594;11.650;2023-03-01T03:15:56;97193.66;;;0.40
40624;BMP280;26325;48.594;11.650;2023-03-01T03:18:24;97191.28;;;0.39
40624;BMP280;26325;48.594;11.650;2023-03-01T03:20:55;97194.47;;;0.41
40624;BMP280;26325;48.594;11.650;2023-03-01T03:23:21;97193.66;;;0.40
40624;BMP280;26325;48.594;11.650;2023-03-01T03:25:50;97195.56;;;0.38
40624;BMP280;26325;48.594;11.650;2023-03-01T03:28:16;97193.66;;;0.40
40624;BMP280;26325;48.594;11.650;2023-03-01T03:30:42;97186.03;;;0.40
40624;BMP280;26325;48.594;11.650;2023-03-01T03:33:10;97190.16;;;0.41
40624;BMP280;26325;48.594;11.650;2023-03-01T03:35:44;97187.16;;;0.38
40624;BMP280;26325;48.594;11.650;2023-03-01T03:38:16;97187.47;;;0.35
40624;BMP280;26325;48.594;11.650;2023-03-01T03:40:46;97198.47;;;0.28
40624;BMP280;26325;48.594;11.650;2023-03-01T03:43:15;97188.44;;;0.26
40624;BMP280;26325;48.594;11.650;2023-03-01T03:45:44;97185.31;;;0.24
40624;BMP280;26325;48.594;11.650;2023-03-01T03:48:12;97188.31;;;0.20
40624;BMP280;26325;48.594;11.650;2023-03-01T03:50:40;97184.19;;;0.19
40624;BMP280;26325;48.594;11.650;2023-03-01T03:53:12;97180.22;;;0.24
40624;BMP280;26325;48.594;11.650;2023-03-01T03:55:38;97188.03;;;0.15
40624;BMP280;26325;48.594;11.650;2023-03-01T03:58:08;97183.00;;;-0.00
40624;BMP280;26325;48.594;11.650;2023-03-01T04:00:43;97181.25;;;0.00
40624;BMP280;26325;48.594;11.650;2023-03-01T04:03:11;97177.13;;;-0.01
40624;BMP280;26325;48.594;11.650;2023-03-01T04:05:41;97174.72;;;-0.02
40624;BMP280;26325;48.594;11.650;2023-03-01T04:08:07;97172.81;;;-0.00
40624;BMP280;26325;48.594;11.650;2023-03-01T04:10:41;97171.06;;;-0.08
40624;BMP280;26325;48.594;11.650;2023-03-01T04:13:13;97165.53;;;-0.11
40624;BMP280;26325;48.594;11.650;2023-03-01T04:15:39;97174.75;;;-0.18
40624;BMP280;26325;48.594;11.650;2023-03-01T04:18:05;97170.63;;;-0.19
40624;BMP280;26325;48.594;11.650;2023-03-01T04:20:35;97170.63;;;-0.19
40624;BMP280;26325;48.594;11.650;2023-03-01T04:23:08;97174.75;;;-0.18
40624;BMP280;26325;48.594;11.650;2023-03-01T04:25:46;97165.41;;;-0.18
40624;BMP280;26325;48.594;11.650;2023-03-01T04:28:14;97165.88;;;-0.22
40624;BMP280;26325;48.594;11.650;2023-03-01T04:30:40;97165.09;;;-0.30
40624;BMP280;26325;48.594;11.650;2023-03-01T04:33:09;97160.50;;;-0.27
40624;BMP280;26325;48.594;11.650;2023-03-01T04:35:36;97170.97;;;-0.30
40624;BMP280;26325;48.594;11.650;2023-03-01T04:38:05;97164.28;;;-0.31
40624;BMP280;26325;48.594;11.650;2023-03-01T04:40:31;97162.56;;;-0.38
40624;BMP280;26325;48.594;11.650;2023-03-01T04:42:57;97170.63;;;-0.42
40624;BMP280;26325;48.594;11.650;2023-03-01T04:45:24;97162.41;;;-0.52
40624;BMP280;26325;48.594;11.650;2023-03-01T04:47:50;97161.78;;;-0.54
40624;BMP280;26325;48.594;11.650;2023-03-01T04:50:18;97164.63;;;-0.49
40624;BMP280;26325;48.594;11.650;2023-03-01T04:52:46;97158.91;;;-0.59
40624;BMP280;26325;48.594;11.650;2023-03-01T04:55:16;97152.09;;;-0.58
40624;BMP280;26325;48.594;11.650;2023-03-01T04:57:44;97164.31;;;-0.54
40624;BMP280;26325;48.594;11.650;2023-03-01T05:00:10;97164.31;;;-0.62
40624;BMP280;26325;48.594;11.650;2023-03-01T05:02:51;97157.03;;;-0.73
40624;BMP280;26325;48.594;11.650;2023-03-01T05:07:54;97164.63;;;-0.80
40624;BMP280;26325;48.594;11.650;2023-03-01T05:10:23;97160.19;;;-0.78
40624;BMP280;26325;48.594;11.650;2023-03-01T05:12:48;97156.06;;;-0.79
40624;BMP280;26325;48.594;11.650;2023-03-01T05:15:16;97156.06;;;-0.79
40624;BMP280;26325;48.594;11.650;2023-03-01T05:17:47;97149.56;;;-0.82
40624;BMP280;26325;48.594;11.650;2023-03-01T05:20:17;97147.50;;;-0.78
40624;BMP280;26325;48.594;11.650;2023-03-01T05:22:43;97152.88;;;-0.81
40624;BMP280;26325;48.594;11.650;2023-03-01T05:25:13;97144.34;;;-0.80
40624;BMP280;26325;48.594;11.650;2023-03-01T05:27:40;97141.47;;;-0.85
40624;BMP280;26325;48.594;11.650;2023-03-01T05:30:08;97148.47;;;-0.87
40624;BMP280;26325;48.594;11.650;2023-03-01T05:32:46;97143.06;;;-0.84
40624;BMP280;26325;48.594;11.650;2023-03-01T05:35:16;97142.75;;;-0.81
40624;BMP280;26325;48.594;11.650;2023-03-01T05:37:42;97147.66;;;-0.88
40624;BMP280;26325;48.594;11.650;2023-03-01T05:40:20;97139.91;;;-0.86
40624;BMP280;26325;48.594;11.650;2023-03-01T05:42:53;97159.69;;;-0.97
40624;BMP280;26325;48.594;11.650;2023-03-01T05:45:23;97144.63;;;-0.99
40624;BMP280;26325;48.594;11.650;2023-03-01T05:47:49;97155.88;;;-1.01
40624;BMP280;26325;48.594;11.650;2023-03-01T05:52:45;97146.88;;;-0.96
40624;BMP280;26325;48.594;11.650;2023-03-01T05:55:11;97162.69;;;-1.02
40624;BMP280;26325;48.594;11.650;2023-03-01T05:57:36;97161.28;;;-1.04
40624;BMP280;26325;48.594;11.650;2023-03-01T06:00:04;97152.88;;;-1.05
40624;BMP280;26325;48.594;11.650;2023-03-01T06:02:34;97162.88;;;-1.03
40624;BMP280;26325;48.594;11.650;2023-03-01T06:05:01;97163.16;;;-1.06
40624;BMP280;26325;48.594;11.650;2023-03-01T06:07:27;97161.75;;;-1.01
40624;BMP280;26325;48.594;11.650;2023-03-01T06:09:53;97152.25;;;-0.91
40624;BMP280;26325;48.594;11.650;2023-03-01T06:12:20;97160.34;;;-0.88
40624;BMP280;26325;48.594;11.650;2023-03-01T06:14:48;97157.66;;;-0.86
40624;BMP280;26325;48.594;11.650;2023-03-01T06:17:17;97160.19;;;-0.71
40624;BMP280;26325;48.594;11.650;2023-03-01T06:19:52;97165.13;;;-0.69
40624;BMP280;26325;48.594;11.650;2023-03-01T06:22:19;97162.72;;;-0.63
40624;BMP280;26325;48.594;11.650;2023-03-01T06:24:44;97166.72;;;-0.60
40624;BMP280;26325;48.594;11.650;2023-03-01T06:27:10;97161.44;;;-0.51
40624;BMP280;26325;48.594;11.650;2023-03-01T06:29:37;97159.25;;;-0.54
40624;BMP280;26325;48.594;11.650;2023-03-01T06:32:03;97158.59;;;-0.40
40624;BMP280;26325;48.594;11.650;2023-03-01T06:34:29;97166.47;;;-0.04
40624;BMP280;26325;48.594;11.650;2023-03-01T06:36:54;97155.72;;;0.98
40624;BMP280;26325;48.594;11.650;2023-03-01T06:39:24;97149.75;;;2.70
40624;BMP280;26325;48.594;11.650;2023-03-01T06:41:50;97137.69;;;4.14
40624;BMP280;26325;48.594;11.650;2023-03-01T06:44:17;97132.09;;;5.61
40624;BMP280;26325;48.594;11.650;2023-03-01T06:46:45;97132.97;;;6.67
40624;BMP280;26325;48.594;11.650;2023-03-01T06:49:11;97127.03;;;7.94
40624;BMP280;26325;48.594;11.650;2023-03-01T06:51:38;97127.94;;;8.65
40624;BMP280;26325;48.594;11.650;2023-03-01T06:54:04;97132.75;;;7.72
40624;BMP280;26325;48.594;11.650;2023-03-01T06:56:33;97126.03;;;8.43
40624;BMP280;26325;48.594;11.650;2023-03-01T06:59:02;97118.88;;;9.09
40624;BMP280;26325;48.594;11.650;2023-03-01T07:01:30;97121.97;;;9.68
40624;BMP280;26325;48.594;11.650;2023-03-01T07:03:56;97112.69;;;10.79
40624;BMP280;26325;48.594;11.650;2023-03-01T07:06:24;97100.41;;;11.68
40624;BMP280;26325;48.594;11.650;2023-03-01T07:08:52;97098.13;;;12.19
40624;BMP280;26325;48.594;11.650;2023-03-01T07:11:18;97093.28;;;13.02
40624;BMP280;26325;48.594;11.650;2023-03-01T07:13:45;97098.34;;;13.65
40624;BMP280;26325;48.594;11.650;2023-03-01T07:16:11;97085.47;;;14.46
40624;BMP280;26325;48.594;11.650;2023-03-01T07:18:36;97089.44;;;14.53
40624;BMP280;26325;48.594;11.650;2023-03-01T07:21:08;97094.03;;;14.01
40624;BMP280;26325;48.594;11.650;2023-03-01T07:23:35;97095.56;;;13.45
40624;BMP280;26325;48.594;11.650;2023-03-01T07:26:01;97092.44;;;13.43
40624;BMP280;26325;48.594;11.650;2023-03-01T07:28:28;97096.22;;;13.31
40624;BMP280;26325;48.594;11.650;2023-03-01T07:31:04;97103.69;;;13.53
40624;BMP280;26325;48.594;11.650;2023-03-01T07:33:29;97093.19;;;13.70
40624;BMP280;26325;48.594;11.650;2023-03-01T07:35:59;97086.50;;;14.40
40624;BMP280;26325;48.594;11.650;2023-03-01T07:38:25;97087.94;;;14.62
40624;BMP280;26325;48.594;11.650;2023-03-01T07:40:59;97090.31;;;13.92
40624;BMP280;26325;48.594;11.650;2023-03-01T07:43:25;97089.94;;;12.80
40624;BMP280;26325;48.594;11.650;2023-03-01T07:45:53;97095.28;;;12.58
40624;BMP280;26325;48.594;11.650;2023-03-01T07:48:21;97093.22;;;11.70
40624;BMP280;26325;48.594;11.650;2023-03-01T07:50:49;97102.50;;;9.83
40624;BMP280;26325;48.594;11.650;2023-03-01T07:53:16;97097.19;;;9.67
40624;BMP280;26325;48.594;11.650;2023-03-01T07:55:41;97107.16;;;8.77
40624;BMP280;26325;48.594;11.650;2023-03-01T07:58:15;97101.69;;;8.21
40624;BMP280;26325;48.594;11.650;2023-03-01T08:00:43;97107.09;;;7.66
40624;BMP280;26325;48.594;11.650;2023-03-01T08:03:08;97103.88;;;7.16
40624;BMP280;26325;48.594;11.650;2023-03-01T08:05:34;97099.28;;;7.79
40624;BMP280;26325;48.594;11.650;2023-03-01T08:07:59;97100.53;;;7.94
40624;BMP280;26325;48.594;11.650;2023-03-01T08:10:29;97095.06;;;7.84
40624;BMP280;26325;48.594;11.650;2023-03-01T08:12:54;97095.50;;;7.81
40624;BMP280;26325;48.594;11.650;2023-03-01T08:15:22;97093.53;;;8.07
40624;BMP280;26325;48.594;11.650;2023-03-01T08:17:49;97096.53;;;7.50
40624;BMP280;26325;48.594;11.650;2023-03-01T08:20:15;97094.88;;;7.01
40624;BMP280;26325;48.594;11.650;2023-03-01T08:22:41;97087.00;;;7.57
40624;BMP280;26325;48.594;11.650;2023-03-01T08:25:07;97102.03;;;7.29
40624;BMP280;26325;48.594;11.650;2023-03-01T08:27:36;97096.97;;;7.17
40624;BMP280;26325;48.594;11.650;2023-03-01T08:30:04;97090.44;;;6.84
40624;BMP280;26325;48.594;11.650;2023-03-01T08:32:38;97092.09;;;7.33
40624;BMP280;26325;48.594;11.650;2023-03-01T08:35:04;97083.31;;;7.22
40624;BMP280;26325;48.594;11.650;2023-03-01T08:37:32;97078.78;;;7.72
40624;BMP280;26325;48.594;11.650;2023-03-01T08:40:02;97079.19;;;7.69
40624;BMP280;26325;48.594;11.650;2023-03-01T08:42:35;97075.72;;;7.58
40624;BMP280;26325;48.594;11.650;2023-03-01T08:45:03;97085.00;;;7.59
40624;BMP280;26325;48.594;11.650;2023-03-01T08:47:29;97074.97;;;6.97
40624;BMP280;26325;48.594;11.650;2023-03-01T08:50:05;97066.44;;;7.03
40624;BMP280;26325;48.594;11.650;2023-03-01T08:52:32;97059.28;;;7.35
40624;BMP280;26325;48.594;11.650;2023-03-01T08:55:05;97059.50;;;7.33
40624;BMP280;26325;48.594;11.650;2023-03-01T08:57:35;97062.56;;;6.87
40624;BMP280;26325;48.594;11.650;2023-03-01T09:00:00;97067.22;;;7.03
40624;BMP280;26325;48.594;11.650;2023-03-01T09:02:28;97063.56;;;7.17
40624;BMP280;26325;48.594;11.650;2023-03-01T09:05:00;97057.03;;;7.44
40624;BMP280;26325;48.594;11.650;2023-03-01T09:07:30;97047.13;;;7.48
40624;BMP280;26325;48.594;11.650;2023-03-01T09:09:56;97054.06;;;7.71
40624;BMP280;26325;48.594;11.650;2023-03-01T09:12:21;97049.81;;;8.00
40624;BMP280;26325;48.594;11.650;2023-03-01T09:14:50;97047.22;;;8.07
40624;BMP280;26325;48.594;11.650;2023-03-01T09:17:15;97043.19;;;7.69
40624;BMP280;26325;48.594;11.650;2023-03-01T09:19:41;97034.31;;;7.89
40624;BMP280;26325;48.594;11.650;2023-03-01T09:22:06;97045.28;;;7.79
40624;BMP280;26325;48.594;11.650;2023-03-01T09:24:34;97044.56;;;8.48
40624;BMP280;26325;48.594;11.650;2023-03-01T09:27:01;97049.94;;;7.88
40624;BMP280;26325;48.594;11.650;2023-03-01T09:29:26;97047.75;;;7.91
40624;BMP280;26325;48.594;11.650;2023-03-01T09:31:54;97033.34;;;7.84
40624;BMP280;26325;48.594;11.650;2023-03-01T09:34:22;97043.97;;;8.11
40624;BMP280;26325;48.594;11.650;2023-03-01T09:36:50;97035.97;;;8.37
40624;BMP280;26325;48.594;11.650;2023-03-01T09:39:16;97040.00;;;8.15
40624;BMP280;26325;48.594;11.650;2023-03-01T09:44:38;97041.41;;;7.70
40624;BMP280;26325;48.594;11.650;2023-03-01T09:47:21;97027.78;;;7.87
40624;BMP280;26325;48.594;11.650;2023-03-01T09:50:16;97042.69;;;7.07
40624;BMP280;26325;48.594;11.650;2023-03-01T10:04:55;97017.59;;;6.79
40624;BMP280;26325;48.594;11.650;2023-03-01T10:09:50;97005.34;;;7.76
40624;BMP280;26325;48.594;11.650;2023-03-01T10:12:17;97005.84;;;8.08
40624;BMP280;26325;48.594;11.650;2023-03-01T10:14:54;96995.22;;;7.81
40624;BMP280;26325;48.594;11.650;2023-03-01T10:20:30;97009.72;;;7.52
40624;BMP280;26325;48.594;11.650;2023-03-01T10:23:00;96996.78;;;7.64
40624;BMP280;26325;48.594;11.650;2023-03-01T10:28:31;96990.03;;;8.69
40624;BMP280;26325;48.594;11.650;2023-03-01T10:31:01;96974.09;;;8.14
40624;BMP280;26325;48.594;11.650;2023-03-01T10:33:33;96987.09;;;8.94
40624;BMP280;26325;48.594;11.650;2023-03-01T10:36:01;96960.41;;;9.51
40624;BMP280;26325;48.594;11.650;2023-03-01T10:38:27;96970.34;;;9.25
40624;BMP280;26325;48.594;11.650;2023-03-01T10:41:06;96957.69;;;9.57
40624;BMP280;26325;48.594;11.650;2023-03-01T10:43:52;96961.28;;;10.01
40624;BMP280;26325;48.594;11.650;2023-03-01T10:46:29;96953.53;;;10.01
40624;BMP280;26325;48.594;11.650;2023-03-01T10:51:40;96946.13;;;10.70
40624;BMP280;26325;48.594;11.650;2023-03-01T10:54:14;96953.31;;;10.41
40624;BMP280;26325;48.594;11.650;2023-03-01T10:56:51;96954.22;;;9.74
40624;BMP280;26325;48.594;11.650;2023-03-01T10:59:29;96941.78;;;9.83
40624;BMP280;26325;48.594;11.650;2023-03-01T11:02:30;96933.81;;;9.95
40624;BMP280;26325;48.594;11.650;2023-03-01T11:07:54;96930.44;;;9.72
40624;BMP280;26325;48.594;11.650;2023-03-01T11:13:07;96932.78;;;9.07
40624;BMP280;26325;48.594;11.650;2023-03-01T11:15:36;96932.50;;;8.75
40624;BMP280;26325;48.594;11.650;2023-03-01T11:18:02;96924.53;;;8.65
40624;BMP280;26325;48.594;11.650;2023-03-01T11:20:36;96918.94;;;8.79
40624;BMP280;26325;48.594;11.650;2023-03-01T11:23:09;96911.25;;;8.90
40624;BMP280;26325;48.594;11.650;2023-03-01T11:26:02;96911.63;;;8.94
40624;BMP280;26325;48.594;11.650;2023-03-01T11:28:29;96887.38;;;9.73
40624;BMP280;26325;48.594;11.650;2023-03-01T11:31:08;96870.53;;;10.31
40624;BMP280;26325;48.594;11.650;2023-03-01T11:38:51;96868.22;;;10.46
40624;BMP280;26325;48.594;11.650;2023-03-01T11:41:20;96873.41;;;11.10
40624;BMP280;26325;48.594;11.650;2023-03-01T11:49:23;96857.84;;;11.96
40624;BMP280;26325;48.594;11.650;2023-03-01T12:01:08;96826.13;;;13.23
40624;BMP280;26325;48.594;11.650;2023-03-01T12:03:39;96814.94;;;13.58
40624;BMP280;26325;48.594;11.650;2023-03-01T12:22:50;96801.19;;;15.44
40624;BMP280;26325;48.594;11.650;2023-03-01T12:33:53;96792.78;;;15.62
40624;BMP280;26325;48.594;11.650;2023-03-01T12:41:46;96777.00;;;16.85
40624;BMP280;26325;48.594;11.650;2023-03-01T12:47:13;96762.72;;;18.02
40624;BMP280;26325;48.594;11.650;2023-03-01T12:55:00;96752.78;;;16.47
40624;BMP280;26325;48.594;11.650;2023-03-01T12:57:39;96748.72;;;16.64
40624;BMP280;26325;48.594;11.650;2023-03-01T13:00:26;96740.63;;;16.66
40624;BMP280;26325;48.594;11.650;2023-03-01T13:03:16;96749.56;;;16.18
40624;BMP280;26325;48.594;11.650;2023-03-01T13:08:35;96744.78;;;17.27
40624;BMP280;26325;48.594;11.650;2023-03-01T13:11:05;96753.66;;;14.41
40624;BMP280;26325;48.594;11.650;2023-03-01T13:13:34;96749.09;;;15.49
40624;BMP280;26325;48.594;11.650;2023-03-01T13:19:29;96739.53;;;15.92
40624;BMP280;26325;48.594;11.650;2023-03-01T13:21:57;96744.13;;;16.52
40624;BMP280;26325;48.594;11.650;2023-03-01T13:29:46;96745.97;;;16.79
40624;BMP280;26325;48.594;11.650;2023-03-01T13:34:52;96750.91;;;16.85
40624;BMP280;26325;48.594;11.650;2023-03-01T13:37:31;96757.22;;;16.04
40624;BMP280;26325;48.594;11.650;2023-03-01T13:39:58;96748.44;;;17.26
40624;BMP280;26325;48.594;11.650;2023-03-01T13:42:41;96739.75;;;17.08
40624;BMP280;26325;48.594;11.650;2023-03-01T13:47:48;96740.22;;;16.82
40624;BMP280;26325;48.594;11.650;2023-03-01T13:50:23;96733.75;;;17.30
40624;BMP280;26325;48.594;11.650;2023-03-01T13:52:59;96739.94;;;17.39
40624;BMP280;26325;48.594;11.650;2023-03-01T13:55:44;96738.56;;;16.63
40624;BMP280;26325;48.594;11.650;2023-03-01T13:58:25;96734.41;;;16.62
40624;BMP280;26325;48.594;11.650;2023-03-01T14:01:03;96735.31;;;16.48
40624;BMP280;26325;48.594;11.650;2023-03-01T14:03:29;96734.31;;;15.97
40624;BMP280;26325;48.594;11.650;2023-03-01T14:06:33;96732.94;;;16.09
40624;BMP280;26325;48.594;11.650;2023-03-01T14:09:10;96728.66;;;16.65
40624;BMP280;26325;48.594;11.650;2023-03-01T14:12:01;96726.66;;;16.52
40624;BMP280;26325;48.594;11.650;2023-03-01T14:19:48;96729.34;;;16.42
40624;BMP280;26325;48.594;11.650;2023-03-01T14:22:27;96731.88;;;15.63
40624;BMP280;26325;48.594;11.650;2023-03-01T14:25:02;96731.41;;;16.45
40624;BMP280;26325;48.594;11.650;2023-03-01T14:27:35;96718.91;;;16.75
40624;BMP280;26325;48.594;11.650;2023-03-01T14:30:55;96720.91;;;14.79
40624;BMP280;26325;48.594;11.650;2023-03-01T14:33:03;96720.28;;;15.36
40624;BMP280;26325;48.594;11.650;2023-03-01T14:35:33;96708.31;;;15.25
40624;BMP280;26325;48.594;11.650;2023-03-01T14:38:02;96707.84;;;15.18
40624;BMP280;26325;48.594;11.650;2023-03-01T14:40:29;96708.69;;;14.75
40624;BMP280;26325;48.594;11.650;2023-03-01T14:42:58;96720.38;;;14.58
40624;BMP280;26325;48.594;11.650;2023-03-01T14:45:25;96708.09;;;15.22
40624;BMP280;26325;48.594;11.650;2023-03-01T14:47:53;96702.16;;;14.92
40624;BMP280;26325;48.594;11.650;2023-03-01T14:50:35;96703.47;;;14.75
40624;BMP280;26325;48.594;11.650;2023-03-01T14:53:05;96700.28;;;13.75
40624;BMP280;26325;48.594;11.650;2023-03-01T14:55:34;96714.75;;;13.57
40624;BMP280;26325;48.594;11.650;2023-03-01T14:58:12;96703.50;;;14.36
40624;BMP280;26325;48.594;11.650;2023-03-01T15:00:46;96690.72;;;14.88
40624;BMP280;26325;48.594;11.650;2023-03-01T15:03:35;96686.63;;;14.33
40624;BMP280;26325;48.594;11.650;2023-03-01T15:06:04;96692.06;;;14.08
40624;BMP280;26325;48.594;11.650;2023-03-01T15:08:31;96686.34;;;14.49
40624;BMP280;26325;48.594;11.650;2023-03-01T15:11:02;96684.78;;;14.29
40624;BMP280;26325;48.594;11.650;2023-03-01T15:13:33;96678.03;;;14.09
40624;BMP280;26325;48.594;11.650;2023-03-01T15:16:19;96682.03;;;13.46
40624;BMP280;26325;48.594;11.650;2023-03-01T15:18:49;96679.06;;;14.03
40624;BMP280;26325;48.594;11.650;2023-03-01T15:21:24;96680.63;;;14.04
40624;BMP280;26325;48.594;11.650;2023-03-01T15:24:43;96670.97;;;13.75
40624;BMP280;26325;48.594;11.650;2023-03-01T15:27:00;96671.56;;;13.27
40624;BMP280;26325;48.594;11.650;2023-03-01T15:29:32;96670.63;;;12.56
40624;BMP280;26325;48.594;11.650;2023-03-01T15:32:34;96683.81;;;12.81
40624;BMP280;26325;48.594;11.650;2023-03-01T15:38:01;96682.25;;;11.88
40624;BMP280;26325;48.594;11.650;2023-03-01T15:40:32;96695.03;;;11.47
40624;BMP280;26325;48.594;11.650;2023-03-01T15:43:04;96707.97;;;11.26
40624;BMP280;26325;48.594;11.650;2023-03-01T15:45:32;96701.69;;;10.65
40624;BMP280;26325;48.594;11.650;2023-03-01T15:48:05;96707.22;;;9.92
40624;BMP280;26325;48.594;11.650;2023-03-01T15:50:39;96704.56;;;9.60
40624;BMP280;26325;48.594;11.650;2023-03-01T15:53:13;96704.66;;;10.08
40624;BMP280;26325;48.594;11.650;2023-03-01T15:55:42;96708.88;;;9.44
40624;BMP280;26325;48.594;11.650;2023-03-01T15:58:16;96699.00;;;9.41
40624;BMP280;26325;48.594;11.650;2023-03-01T16:00:43;96706.13;;;9.61
40624;BMP280;26325;48.594;11.650;2023-03-01T16:03:11;96710.09;;;9.41
40624;BMP280;26325;48.594;11.650;2023-03-01T16:05:37;96694.94;;;9.29
40624;BMP280;26325;48.594;11.650;2023-03-01T16:08:07;96699.66;;;9.20
40624;BMP280;26325;48.594;11.650;2023-03-01T16:10:33;96709.22;;;8.97
40624;BMP280;26325;48.594;11.650;2023-03-01T16:13:02;96704.28;;;8.96
40624;BMP280;26325;48.594;11.650;2023-03-01T16:15:34;96700.75;;;8.63
40624;BMP280;26325;48.594;11.650;2023-03-01T16:18:02;96703.31;;;8.75
40624;BMP280;26325;48.594;11.650;2023-03-01T16:20:33;96706.78;;;8.57
40624;BMP280;26325;48.594;11.650;2023-03-01T16:23:05;96701.75;;;8.40
40624;BMP280;26325;48.594;11.650;2023-03-01T16:25:42;96707.19;;;8.10
40624;BMP280;26325;48.594;11.650;2023-03-01T16:28:16;96702.28;;;8.08
40624;BMP280;26325;48.594;11.650;2023-03-01T16:30:46;96705.25;;;7.94
40624;BMP280;26325;48.594;11.650;2023-03-01T16:33:13;96702.78;;;7.88